Time;durP1;ratioP1;P1;durP2;ratioP2;P2;SDS_P1;SDS_P2;PMS_P1;PMS_P2;Temp;Humidity;BMP_temperature;BMP_pressure;BME280_temperature;BME280_humidity;BME280_pressure;Samples;Min_cycle;Max_cycle;Signal;HPM_P1;HPM_P2
2023/10/21 00:01:10;;;;;;;21.27;3.80;;;;;;;7.64;100.00;98501.75;4992199;28;20046;-69
2023/10/21 00:03:37;;;;;;;19.17;4.00;;;;;;;7.55;100.00;98498.75;5000594;28;20176;-70
2023/10/21 00:06:04;;;;;;;20.35;4.25;;;;;;;7.67;100.00;98491.16;5012139;28;20073;-70
2023/10/21 00:08:31;;;;;;;24.95;4.60;;;;;;;7.70;100.00;98478.78;4992370;28;20109;-72
2023/10/21 00:11:05;;;;;;;24.77;3.95;;;;;;;7.52;100.00;98498.94;4993026;28;20476;-70
2023/10/21 00:13:32;;;;;;;17.75;4.28;;;;;;;7.66;100.00;98499.88;5011491;28;20054;-70
2023/10/21 00:15:59;;;;;;;14.68;3.47;;;;;;;7.54;100.00;98507.53;5000934;28;20046;-70
2023/10/21 00:18:26;;;;;;;17.55;4.78;;;;;;;7.38;100.00;98493.72;4992542;28;20050;-70
2023/10/21 00:20:53;;;;;;;24.73;4.50;;;;;;;7.68;100.00;98475.41;4992565;28;20053;-70
2023/10/21 00:23:21;;;;;;;17.80;4.47;;;;;;;7.64;100.00;98481.72;5008280;28;20108;-70
2023/10/21 00:25:48;;;;;;;18.85;4.78;;;;;;;7.60;100.00;98470.66;5012002;28;20132;-70
2023/10/21 00:28:15;;;;;;;20.20;4.43;;;;;;;7.66;100.00;98473.81;5011457;28;20438;-70
2023/10/21 00:30:45;;;;;;;18.23;5.38;;;;;;;7.80;100.00;98469.44;5011447;28;20296;-70
2023/10/21 00:33:13;;;;;;;28.25;5.22;;;;;;;7.57;100.00;98457.81;5011325;28;20053;-70
2023/10/21 00:35:44;;;;;;;21.27;4.75;;;;;;;7.69;100.00;98461.44;5005470;28;20484;-70
2023/10/21 00:38:11;;;;;;;22.05;4.28;;;;;;;7.60;100.00;98478.47;5004456;28;20132;-70
2023/10/21 00:40:38;;;;;;;16.50;3.22;;;;;;;7.45;100.00;98444.72;5006855;28;20046;-70
2023/10/21 00:43:05;;;;;;;12.45;2.80;;;;;;;7.27;100.00;98460.53;5002403;28;20128;-70
2023/10/21 00:45:32;;;;;;;19.35;4.05;;;;;;;7.52;100.00;98452.06;5010296;28;20045;-70
2023/10/21 00:47:58;;;;;;;15.35;3.40;;;;;;;7.47;100.00;98441.13;5002395;28;20050;-70
2023/10/21 00:50:25;;;;;;;14.38;3.50;;;;;;;7.44;100.00;98443.91;4995407;28;20057;-71
2023/10/21 00:52:52;;;;;;;24.08;4.18;;;;;;;7.64;100.00;98444.44;5009226;28;20235;-70
2023/10/21 00:55:19;;;;;;;21.83;3.60;;;;;;;7.53;100.00;98439.91;5001183;28;20404;-70
2023/10/21 00:57:46;;;;;;;25.92;4.10;;;;;;;7.41;100.00;98444.91;5007164;28;20053;-70
2023/10/21 01:00:13;;;;;;;18.35;3.63;;;;;;;7.49;100.00;98420.16;5006737;28;20129;-70
2023/10/21 01:02:42;;;;;;;18.27;4.20;;;;;;;7.67;100.00;98441.66;5005529;28;20050;-70
2023/10/21 01:05:09;;;;;;;33.90;6.07;;;;;;;7.71;100.00;98449.16;4996875;28;20506;-70
2023/10/21 01:07:36;;;;;;;29.88;4.38;;;;;;;7.51;100.00;98433.97;4998259;28;20137;-70
2023/10/21 01:10:05;;;;;;;19.42;3.97;;;;;;;7.55;100.00;98436.25;5010368;28;20425;-70
2023/10/21 01:12:32;;;;;;;21.25;4.03;;;;;;;7.33;100.00;98446.31;5026614;28;20050;-70
2023/10/21 01:14:59;;;;;;;21.35;4.13;;;;;;;7.33;100.00;98436.75;4997124;28;20050;-70
2023/10/21 01:17:25;;;;;;;27.65;6.07;;;;;;;7.35;100.00;98440.09;5001197;28;20088;-70
2023/10/21 01:19:52;;;;;;;17.58;4.25;;;;;;;7.25;100.00;98438.97;5006698;28;20124;-70
2023/10/21 01:22:19;;;;;;;15.77;3.65;;;;;;;7.31;100.00;98451.63;5011028;28;20057;-70
2023/10/21 01:24:45;;;;;;;20.23;3.20;;;;;;;7.11;100.00;98432.00;4998380;28;20061;-70
2023/10/21 01:27:12;;;;;;;25.60;4.18;;;;;;;7.21;100.00;98437.50;5001427;28;20050;-70
2023/10/21 01:29:39;;;;;;;16.85;3.22;;;;;;;7.23;100.00;98426.06;5015175;28;20157;-70
2023/10/21 01:32:06;;;;;;;12.90;3.03;;;;;;;7.22;100.00;98406.19;5009704;28;20043;-70
2023/10/21 01:34:33;;;;;;;16.00;2.83;;;;;;;7.16;100.00;98424.75;5005803;28;20526;-70
2023/10/21 01:36:59;;;;;;;18.27;3.75;;;;;;;7.15;100.00;98425.69;5006271;28;20042;-70
2023/10/21 01:39:26;;;;;;;19.25;4.28;;;;;;;7.35;100.00;98434.88;5003476;28;20050;-70
2023/10/21 01:41:53;;;;;;;16.05;3.47;;;;;;;7.17;100.00;98407.34;5014101;28;20517;-70
2023/10/21 01:44:19;;;;;;;28.27;7.65;;;;;;;7.32;100.00;98410.81;5004771;28;20161;-70
2023/10/21 01:46:46;;;;;;;28.58;6.22;;;;;;;7.16;100.00;98405.72;5008233;28;20049;-70
2023/10/21 01:49:13;;;;;;;19.85;4.53;;;;;;;7.14;100.00;98411.00;4999151;28;20410;-71
2023/10/21 01:51:39;;;;;;;16.90;4.15;;;;;;;7.06;100.00;98405.41;5002063;28;20503;-71
2023/10/21 01:54:06;;;;;;;20.40;3.95;;;;;;;7.10;100.00;98383.50;5001138;28;20050;-70
2023/10/21 01:56:33;;;;;;;21.75;5.45;;;;;;;7.28;100.00;98415.38;4993665;28;20050;-71
2023/10/21 01:58:59;;;;;;;16.63;4.00;;;;;;;7.07;100.00;98395.88;4994634;28;20052;-71
2023/10/21 02:01:27;;;;;;;23.75;6.15;;;;;;;7.09;100.00;98396.59;5012665;28;20492;-70
2023/10/21 02:03:53;;;;;;;18.30;4.63;;;;;;;7.16;100.00;98390.09;5014098;28;20060;-70
2023/10/21 02:06:20;;;;;;;15.85;3.90;;;;;;;7.21;100.00;98375.03;4998187;28;20129;-70
2023/10/21 02:08:47;;;;;;;18.67;4.60;;;;;;;7.20;100.00;98381.16;4994715;28;20050;-70
2023/10/21 02:11:19;;;;;;;23.00;5.60;;;;;;;7.33;100.00;98378.63;5008983;28;20054;-70
2023/10/21 02:13:46;;;;;;;24.20;5.20;;;;;;;7.38;100.00;98392.19;5014204;28;20053;-70
2023/10/21 02:16:12;;;;;;;25.88;5.75;;;;;;;7.34;100.00;98382.91;5000770;28;20050;-70
2023/10/21 02:18:39;;;;;;;34.58;6.45;;;;;;;6.90;100.00;98340.47;4999875;28;20156;-71
2023/10/21 02:21:06;;;;;;;20.08;4.80;;;;;;;7.27;100.00;98382.44;5002487;28;20092;-72
2023/10/21 02:23:33;;;;;;;21.88;4.95;;;;;;;7.19;100.00;98384.72;4998449;28;20065;-71
2023/10/21 02:26:05;;;;;;;28.95;6.90;;;;;;;7.24;100.00;98346.19;5003738;28;20125;-71
2023/10/21 02:28:32;;;;;;;25.63;5.28;;;;;;;7.07;100.00;98347.25;5011090;28;20328;-71
2023/10/21 02:31:01;;;;;;;27.27;4.53;;;;;;;7.16;100.00;98372.69;5013980;28;20071;-71
2023/10/21 02:33:28;;;;;;;21.27;5.82;;;;;;;7.22;100.00;98374.94;5013312;28;20555;-71
2023/10/21 02:35:55;;;;;;;22.63;5.43;;;;;;;7.21;100.00;98369.84;5011968;28;20132;-71
2023/10/21 02:38:22;;;;;;;29.05;6.47;;;;;;;7.19;100.00;98366.50;4993466;28;20046;-71
2023/10/21 02:40:49;;;;;;;30.90;6.03;;;;;;;7.17;100.00;98350.97;4999986;28;20487;-70
2023/10/21 02:43:16;;;;;;;30.10;4.95;;;;;;;7.11;100.00;98337.50;5001670;28;20058;-71
2023/10/21 02:45:43;;;;;;;29.95;6.05;;;;;;;7.16;100.00;98343.25;5008519;28;20046;-71
2023/10/21 02:48:10;;;;;;;26.02;3.88;;;;;;;7.21;100.00;98323.81;5003073;28;20058;-70
2023/10/21 02:50:37;;;;;;;17.92;4.38;;;;;;;7.25;100.00;98318.41;4998204;28;20129;-71
2023/10/21 02:53:03;;;;;;;33.90;6.75;;;;;;;7.41;100.00;98303.50;5012193;28;20089;-71
2023/10/21 02:55:30;;;;;;;25.38;4.70;;;;;;;7.32;100.00;98302.31;5013191;28;20503;-70
2023/10/21 02:57:57;;;;;;;23.33;5.35;;;;;;;7.33;100.00;98295.31;4999744;28;20063;-70
2023/10/21 03:00:23;;;;;;;22.17;5.47;;;;;;;7.37;100.00;98325.47;5013856;28;20060;-70
2023/10/21 03:02:51;;;;;;;29.67;6.18;;;;;;;7.55;100.00;98285.22;5012990;28;20050;-70
2023/10/21 03:05:18;;;;;;;25.65;5.35;;;;;;;7.41;100.00;98264.44;5005689;28;20510;-71
2023/10/21 03:07:45;;;;;;;24.15;4.93;;;;;;;7.40;100.00;98257.56;4993501;28;20061;-70
2023/10/21 03:10:12;;;;;;;24.77;5.35;;;;;;;7.50;100.00;98244.78;4986269;28;20054;-71
2023/10/21 03:12:38;;;;;;;25.67;6.72;;;;;;;7.50;100.00;98273.44;5000948;28;20050;-70
2023/10/21 03:15:09;;;;;;;19.42;4.60;;;;;;;7.48;100.00;98247.50;5011931;28;20427;-70
2023/10/21 03:17:36;;;;;;;24.40;4.75;;;;;;;7.44;100.00;98237.38;5002379;28;20050;-70
2023/10/21 03:20:04;;;;;;;29.40;5.60;;;;;;;7.55;100.00;98233.16;4996568;28;20096;-71
2023/10/21 03:22:30;;;;;;;26.35;4.97;;;;;;;7.41;100.00;98212.38;5003848;28;20514;-70
2023/10/21 03:24:57;;;;;;;23.38;4.72;;;;;;;7.54;100.00;98233.25;5006727;28;20076;-70
2023/10/21 03:27:25;;;;;;;26.67;5.75;;;;;;;7.57;100.00;98226.06;4993262;28;20060;-71
2023/10/21 03:29:51;;;;;;;18.38;5.55;;;;;;;7.45;100.00;98236.44;5007267;28;20050;-71
2023/10/21 03:32:18;;;;;;;22.00;3.85;;;;;;;7.38;100.00;98236.00;5013088;28;20459;-70
2023/10/21 03:34:45;;;;;;;16.52;3.67;;;;;;;7.70;100.00;98213.09;5008836;28;20488;-70
2023/10/21 03:37:12;;;;;;;30.23;6.38;;;;;;;7.73;100.00;98199.84;4997597;28;20046;-70
2023/10/21 03:39:38;;;;;;;32.72;6.72;;;;;;;7.60;100.00;98199.81;4993362;28;20054;-71
2023/10/21 03:42:07;;;;;;;30.00;7.13;;;;;;;7.54;100.00;98222.81;5008979;28;20104;-71
2023/10/21 03:44:33;;;;;;;21.27;4.32;;;;;;;7.45;100.00;98207.81;5011997;28;20054;-70
2023/10/21 03:47:00;;;;;;;25.85;6.55;;;;;;;7.31;100.00;98211.31;5010745;28;20437;-70
2023/10/21 03:49:27;;;;;;;30.90;6.32;;;;;;;7.42;100.00;98190.63;4995528;28;20050;-71
2023/10/21 03:51:54;;;;;;;31.88;6.43;;;;;;;7.47;100.00;98198.13;4992971;28;20601;-71
2023/10/21 03:54:20;;;;;;;30.75;6.47;;;;;;;7.65;100.00;98194.31;5006097;28;20054;-70
2023/10/21 03:56:47;;;;;;;31.00;7.65;;;;;;;7.71;100.00;98209.53;5000161;28;20061;-72
2023/10/21 03:59:14;;;;;;;29.35;5.43;;;;;;;7.57;100.00;98186.19;5014178;28;20511;-70
2023/10/21 04:01:40;;;;;;;29.15;6.45;;;;;;;7.60;100.00;98196.41;4985059;28;20050;-70
2023/10/21 04:04:07;;;;;;;29.88;4.85;;;;;;;7.55;100.00;98193.25;5011808;28;20068;-70
2023/10/21 04:06:34;;;;;;;20.77;4.82;;;;;;;7.55;100.00;98177.63;4997906;28;20045;-71
2023/10/21 04:09:01;;;;;;;22.40;5.78;;;;;;;7.52;100.00;98113.56;5001618;28;20542;-71
2023/10/21 04:11:28;;;;;;;32.08;6.72;;;;;;;7.49;100.00;98168.47;4992743;28;20058;-71
2023/10/21 04:13:54;;;;;;;23.25;5.10;;;;;;;7.60;100.00;98171.19;5001408;28;20498;-71
2023/10/21 04:16:21;;;;;;;23.75;5.53;;;;;;;7.72;100.00;98169.53;5012112;28;20046;-71
2023/10/21 04:18:48;;;;;;;26.25;8.45;;;;;;;7.52;100.00;98157.00;5003880;28;20407;-70
2023/10/21 04:21:14;;;;;;;28.77;5.65;;;;;;;7.60;100.00;98184.19;4998804;28;20054;-70
2023/10/21 04:23:41;;;;;;;24.88;5.40;;;;;;;7.61;100.00;98179.81;5011273;28;20088;-70
2023/10/21 04:26:08;;;;;;;40.15;8.18;;;;;;;7.45;100.00;98164.38;5000820;28;20046;-70
2023/10/21 04:28:34;;;;;;;22.35;4.72;;;;;;;7.35;100.00;98153.75;5002747;28;20042;-70
2023/10/21 04:31:01;;;;;;;15.73;4.35;;;;;;;7.65;100.00;98175.25;4991798;28;20483;-70
2023/10/21 04:33:28;;;;;;;21.80;4.90;;;;;;;7.58;100.00;98154.00;5011369;28;20136;-70
2023/10/21 04:35:56;;;;;;;26.23;5.63;;;;;;;7.70;100.00;98134.97;5003285;28;20050;-70
2023/10/21 04:38:22;;;;;;;30.40;4.95;;;;;;;7.70;100.00;98149.72;4991100;28;20050;-70
2023/10/21 04:40:49;;;;;;;28.90;6.43;;;;;;;7.57;100.00;98155.75;4997537;28;20049;-70
2023/10/21 04:43:16;;;;;;;25.98;5.90;;;;;;;7.59;100.00;98164.28;4999222;28;20058;-70
2023/10/21 04:45:42;;;;;;;19.23;3.95;;;;;;;7.59;100.00;98143.47;5008848;28;20546;-70
2023/10/21 04:48:10;;;;;;;24.98;6.95;;;;;;;7.66;100.00;98150.88;5005390;28;20045;-70
2023/10/21 04:50:37;;;;;;;28.50;4.88;;;;;;;7.56;100.00;98154.09;4998651;28;20042;-70
2023/10/21 04:53:03;;;;;;;27.67;6.05;;;;;;;7.49;100.00;98170.22;5010936;28;20053;-70
2023/10/21 04:55:30;;;;;;;29.88;7.50;;;;;;;7.55;100.00;98147.22;5000431;28;20054;-71
2023/10/21 04:57:57;;;;;;;22.33;4.70;;;;;;;7.59;100.00;98150.44;5008863;28;20042;-70
2023/10/21 05:00:24;;;;;;;26.17;6.45;;;;;;;7.57;100.00;98147.94;5001907;28;20058;-70
2023/10/21 05:02:51;;;;;;;24.00;6.05;;;;;;;7.53;100.00;98145.66;5004143;28;20054;-70
2023/10/21 05:05:18;;;;;;;21.75;6.28;;;;;;;7.66;100.00;98130.88;4998900;28;20042;-71
2023/10/21 05:07:45;;;;;;;28.65;5.38;;;;;;;7.48;100.00;98140.75;5003903;28;20072;-70
2023/10/21 05:10:12;;;;;;;24.70;5.20;;;;;;;7.36;100.00;98146.75;5005111;28;20046;-71
2023/10/21 05:12:39;;;;;;;24.63;5.20;;;;;;;7.41;100.00;98148.13;4991671;28;20415;-70
2023/10/21 05:15:06;;;;;;;26.63;6.13;;;;;;;7.45;100.00;98135.72;4995605;28;20045;-71
2023/10/21 05:17:33;;;;;;;22.85;4.30;;;;;;;7.66;100.00;98136.06;5000435;28;20054;-71
2023/10/21 05:20:00;;;;;;;23.40;5.13;;;;;;;7.84;100.00;98120.97;5007422;28;20062;-71
2023/10/21 05:22:27;;;;;;;31.95;7.07;;;;;;;7.71;100.00;98107.13;5017113;28;20156;-70
2023/10/21 05:24:53;;;;;;;32.13;6.72;;;;;;;7.67;100.00;98118.69;5004470;28;20500;-70
2023/10/21 05:27:20;;;;;;;22.08;5.35;;;;;;;7.69;100.00;98148.91;4998533;28;20498;-70
2023/10/21 05:29:47;;;;;;;33.45;7.78;;;;;;;7.54;100.00;98106.50;5011017;28;20054;-70
2023/10/21 05:32:14;;;;;;;24.27;5.45;;;;;;;7.63;100.00;98107.63;4991678;28;20042;-71
2023/10/21 05:34:41;;;;;;;23.25;5.78;;;;;;;7.52;100.00;98108.34;5002513;28;20137;-70
2023/10/21 05:37:08;;;;;;;21.30;5.20;;;;;;;7.56;100.00;98098.56;4992519;28;20153;-70
2023/10/21 05:39:35;;;;;;;27.20;5.45;;;;;;;7.76;100.00;98081.59;5000529;28;20061;-70
2023/10/21 05:42:02;;;;;;;52.85;9.55;;;;;;;7.71;100.00;98099.31;5010553;28;20065;-71
2023/10/21 05:44:30;;;;;;;31.70;7.07;;;;;;;7.89;100.00;98103.25;5001146;28;20488;-70
2023/10/21 05:47:13;;;;;;;27.58;6.45;;;;;;;7.90;100.00;98083.28;4992042;28;20057;-71
2023/10/21 05:49:40;;;;;;;30.63;5.55;;;;;;;7.74;100.00;98083.50;4994829;28;20495;-71
2023/10/21 05:52:06;;;;;;;26.77;7.10;;;;;;;7.98;100.00;98094.84;5002180;28;20104;-70
2023/10/21 05:54:33;;;;;;;36.13;7.80;;;;;;;7.83;100.00;98087.25;4993759;28;20061;-70
2023/10/21 05:57:00;;;;;;;41.83;9.15;;;;;;;7.56;100.00;98088.16;4999629;28;20419;-71
2023/10/21 05:59:27;;;;;;;31.73;5.97;;;;;;;7.76;100.00;98081.59;4994593;28;20050;-71
2023/10/21 06:01:53;;;;;;;29.80;6.72;;;;;;;7.66;100.00;98091.81;5011318;28;20057;-71
2023/10/21 06:04:20;;;;;;;22.92;5.63;;;;;;;7.59;100.00;98093.16;5026146;28;20069;-70
2023/10/21 06:06:49;;;;;;;30.95;6.20;;;;;;;7.63;100.00;98086.78;4997929;28;20042;-71
2023/10/21 06:09:16;;;;;;;25.67;5.75;;;;;;;7.68;100.00;98108.16;5003972;28;20049;-71
2023/10/21 06:11:43;;;;;;;40.28;8.07;;;;;;;7.58;100.00;98092.34;4999675;28;20093;-71
2023/10/21 06:14:10;;;;;;;27.08;6.50;;;;;;;7.50;100.00;98088.56;5014261;28;20284;-71
2023/10/21 06:16:36;;;;;;;27.50;6.53;;;;;;;7.34;100.00;98081.78;5011359;28;20058;-71
2023/10/21 06:19:03;;;;;;;28.48;5.95;;;;;;;7.41;100.00;98135.09;5003758;28;20062;-71
2023/10/21 06:21:30;;;;;;;22.98;6.18;;;;;;;7.24;100.00;98041.69;5012963;28;20050;-71
2023/10/21 06:23:56;;;;;;;26.88;6.70;;;;;;;7.36;100.00;98086.88;5001749;28;20042;-71
2023/10/21 06:26:23;;;;;;;34.97;6.68;;;;;;;7.44;100.00;98087.22;5001075;28;20188;-69
2023/10/21 06:28:50;;;;;;;22.15;4.72;;;;;;;7.32;100.00;98068.03;5007827;28;20046;-70
2023/10/21 06:31:16;;;;;;;16.90;3.63;;;;;;;7.32;100.00;98086.25;5005307;28;20061;-70
2023/10/21 06:33:43;;;;;;;28.80;6.22;;;;;;;7.19;100.00;98054.19;4999300;28;20149;-70
2023/10/21 06:36:10;;;;;;;29.00;7.90;;;;;;;7.38;100.00;98085.88;5005529;28;20050;-70
2023/10/21 06:38:36;;;;;;;24.10;5.90;;;;;;;7.47;100.00;98075.75;5009651;28;20058;-70
2023/10/21 06:41:03;;;;;;;22.35;4.32;;;;;;;7.49;100.00;98069.53;5013691;28;20073;-70
2023/10/21 06:43:40;;;;;;;24.85;5.97;;;;;;;7.54;100.00;98071.81;5012314;28;20136;-70
2023/10/21 06:46:07;;;;;;;22.48;4.28;;;;;;;7.45;100.00;98059.41;4995456;28;20046;-71
2023/10/21 06:48:34;;;;;;;27.30;6.30;;;;;;;7.49;100.00;98069.53;4994919;28;20050;-70
2023/10/21 06:51:01;;;;;;;29.30;5.72;;;;;;;7.50;100.00;98068.56;4992609;28;20081;-70
2023/10/21 06:53:28;;;;;;;30.25;5.78;;;;;;;7.33;100.00;98068.88;5004792;28;20061;-71
2023/10/21 06:55:54;;;;;;;36.78;7.25;;;;;;;7.49;100.00;98082.53;5006362;28;20376;-70
2023/10/21 06:58:21;;;;;;;23.98;5.30;;;;;;;7.49;100.00;98071.28;5013659;28;20050;-71
2023/10/21 07:00:48;;;;;;;18.55;6.13;;;;;;;7.46;100.00;98090.56;5014228;28;20060;-71
2023/10/21 07:03:17;;;;;;;20.90;4.75;;;;;;;7.39;100.00;98056.28;4994403;28;20092;-70
2023/10/21 07:05:45;;;;;;;32.88;5.63;;;;;;;7.58;100.00;98055.88;5003497;28;20049;-70
2023/10/21 07:08:11;;;;;;;31.50;7.13;;;;;;;7.63;100.00;98057.31;5008412;28;20479;-70
2023/10/21 07:10:39;;;;;;;28.67;6.85;;;;;;;7.58;100.00;98057.66;4993542;28;20133;-70
2023/10/21 07:13:05;;;;;;;25.23;5.82;;;;;;;7.54;100.00;98071.81;4995471;28;20121;-70
2023/10/21 07:15:32;;;;;;;26.20;5.95;;;;;;;7.40;100.00;98054.50;5005774;28;20082;-70
2023/10/21 07:17:59;;;;;;;26.65;4.93;;;;;;;7.25;100.00;98029.53;4999191;28;20050;-70
2023/10/21 07:20:26;;;;;;;30.30;5.57;;;;;;;7.42;100.00;98037.03;5006948;28;20057;-70
2023/10/21 07:22:54;;;;;;;32.20;6.68;;;;;;;7.58;100.00;98032.44;5004514;28;20052;-70
2023/10/21 07:25:21;;;;;;;27.67;5.45;;;;;;;7.48;100.00;98061.81;5013134;28;20099;-70
2023/10/21 07:27:47;;;;;;;22.38;5.85;;;;;;;7.58;100.00;98034.22;5012713;28;20053;-70
2023/10/21 07:30:15;;;;;;;26.85;5.72;;;;;;;7.69;100.00;98034.31;4998879;28;20046;-70
2023/10/21 07:32:42;;;;;;;27.10;5.55;;;;;;;7.39;100.00;98032.03;5007815;28;20483;-70
2023/10/21 07:35:09;;;;;;;29.98;5.93;;;;;;;7.40;100.00;98016.31;5012651;28;20073;-70
2023/10/21 07:37:37;;;;;;;31.52;5.32;;;;;;;7.63;100.00;98023.47;5004002;28;20054;-71
2023/10/21 07:40:05;;;;;;;25.38;6.13;;;;;;;7.55;100.00;98009.22;5006911;28;20053;-70
2023/10/21 07:42:32;;;;;;;23.23;5.28;;;;;;;7.47;100.00;98021.94;4991425;28;20054;-71
2023/10/21 07:44:59;;;;;;;36.72;7.72;;;;;;;7.62;100.00;98014.84;4993185;28;20416;-71
2023/10/21 07:47:26;;;;;;;26.65;5.97;;;;;;;7.62;100.00;98009.63;5007492;28;20053;-70
2023/10/21 07:49:53;;;;;;;16.85;4.10;;;;;;;7.47;100.00;98011.53;4997013;28;20054;-71
2023/10/21 07:52:22;;;;;;;29.05;5.85;;;;;;;7.63;100.00;98010.44;5005023;28;20257;-71
2023/10/21 07:54:49;;;;;;;18.98;4.80;;;;;;;7.51;100.00;98009.53;4993152;28;20073;-71
2023/10/21 07:57:17;;;;;;;22.65;5.50;;;;;;;7.53;100.00;98005.88;4992000;28;20069;-71
2023/10/21 07:59:44;;;;;;;29.27;7.40;;;;;;;7.77;100.00;97966.03;5006815;28;20473;-70
2023/10/21 08:02:11;;;;;;;32.97;6.15;;;;;;;7.76;100.00;97980.03;4992546;28;20050;-71
2023/10/21 08:04:40;;;;;;;26.85;8.27;;;;;;;7.77;100.00;97974.72;4996842;28;20054;-71
2023/10/21 08:07:06;;;;;;;28.30;6.65;;;;;;;7.65;100.00;97972.97;5012460;28;20451;-70
2023/10/21 08:09:35;;;;;;;36.30;6.50;;;;;;;7.68;100.00;97957.09;5008050;28;20082;-70
2023/10/21 08:12:02;;;;;;;35.65;8.35;;;;;;;7.86;100.00;97968.03;5004993;28;20074;-70
2023/10/21 08:14:31;;;;;;;47.25;9.48;;;;;;;7.84;100.00;97969.88;5002923;28;20509;-70
2023/10/21 08:17:00;;;;;;;35.28;6.13;;;;;;;7.80;100.00;97958.03;4992107;28;20060;-71
2023/10/21 08:19:29;;;;;;;32.97;6.10;;;;;;;7.77;100.00;97947.81;5004147;28;20053;-71
2023/10/21 08:21:56;;;;;;;38.58;6.68;;;;;;;7.64;100.00;97937.44;5011655;28;20046;-70
2023/10/21 08:24:23;;;;;;;43.13;6.85;;;;;;;7.85;100.00;97942.09;5011675;28;20054;-71
2023/10/21 08:26:49;;;;;;;40.40;8.00;;;;;;;7.91;100.00;97931.22;5024010;28;20476;-71
2023/10/21 08:29:16;;;;;;;33.53;7.15;;;;;;;7.91;100.00;97902.56;5001530;28;20041;-71
2023/10/21 08:31:43;;;;;;;35.70;7.72;;;;;;;7.91;100.00;97931.22;4996835;28;20408;-71
2023/10/21 08:34:12;;;;;;;36.10;7.40;;;;;;;7.75;100.00;97923.66;4990917;28;20046;-71
2023/10/21 08:36:40;;;;;;;36.15;7.05;;;;;;;7.58;100.00;97906.63;4991558;28;20050;-72
2023/10/21 08:39:07;;;;;;;23.52;6.40;;;;;;;7.59;100.00;97924.72;4980380;28;20046;-72
2023/10/21 08:41:38;;;;;;;38.08;7.25;;;;;;;7.66;100.00;97893.06;4999603;28;20054;-71
2023/10/21 08:44:07;;;;;;;36.88;6.50;;;;;;;7.79;100.00;97889.47;5010470;28;20049;-71
2023/10/21 08:46:34;;;;;;;37.08;7.57;;;;;;;7.90;100.00;97890.47;5011763;28;20056;-71
2023/10/21 08:49:03;;;;;;;28.83;6.53;;;;;;;7.75;100.00;97882.81;4994569;28;20050;-71
2023/10/21 08:51:35;;;;;;;27.45;6.60;;;;;;;7.80;100.00;97890.28;4990924;28;20448;-72
2023/10/21 08:54:03;;;;;;;29.60;7.45;;;;;;;7.70;100.00;97874.50;4991938;28;20077;-71
2023/10/21 08:56:32;;;;;;;35.03;5.00;;;;;;;7.49;100.00;97855.19;5010615;28;20050;-71
2023/10/21 08:59:00;;;;;;;28.45;5.88;;;;;;;7.65;100.00;97867.94;5009757;28;20444;-71
2023/10/21 09:01:27;;;;;;;34.65;6.78;;;;;;;7.78;100.00;97846.13;5006561;28;20081;-71
2023/10/21 09:03:55;;;;;;;26.42;6.50;;;;;;;7.94;100.00;97848.44;4992376;28;20054;-71
2023/10/21 09:06:23;;;;;;;24.98;5.88;;;;;;;7.84;100.00;97842.25;4994567;28;20056;-71
2023/10/21 09:08:50;;;;;;;34.83;7.75;;;;;;;7.80;100.00;97846.00;5000254;28;20046;-71
2023/10/21 09:11:20;;;;;;;40.03;8.40;;;;;;;7.85;100.00;97830.06;5010773;28;20149;-71
2023/10/21 09:13:48;;;;;;;33.13;6.90;;;;;;;7.81;100.00;97829.47;5004038;28;20057;-71
2023/10/21 09:16:21;;;;;;;26.38;6.25;;;;;;;7.84;100.00;97824.00;4991642;28;20050;-72
2023/10/21 09:19:06;;;;;;;30.35;6.65;;;;;;;7.77;100.00;97801.94;4992680;28;20056;-72
2023/10/21 09:21:44;;;;;;;37.20;6.30;;;;;;;7.82;100.00;97786.00;5011072;28;20057;-71
2023/10/21 09:24:12;;;;;;;25.00;5.70;;;;;;;7.85;100.00;97793.59;5001087;28;20093;-72
2023/10/21 09:26:40;;;;;;;26.02;6.80;;;;;;;7.84;100.00;97778.91;5004201;28;20058;-72
2023/10/21 09:29:08;;;;;;;27.83;5.78;;;;;;;7.76;100.00;97774.25;4999229;28;20042;-71
2023/10/21 09:31:53;;;;;;;32.20;6.30;;;;;;;7.76;100.00;97762.06;5009617;28;20086;-72
2023/10/21 09:34:30;;;;;;;33.95;6.97;;;;;;;7.58;100.00;97769.44;5010598;28;20050;-71
2023/10/21 09:37:03;;;;;;;24.45;6.82;;;;;;;7.47;100.00;97766.81;4991182;28;20054;-72
2023/10/21 09:39:38;;;;;;;28.30;5.72;;;;;;;7.53;100.00;97740.31;4999454;28;20076;-72
2023/10/21 09:42:06;;;;;;;21.55;5.13;;;;;;;7.63;100.00;97719.63;4994930;28;20101;-72
2023/10/21 09:44:35;;;;;;;33.67;5.78;;;;;;;7.67;100.00;97725.47;4993566;28;20082;-73
2023/10/21 09:47:05;;;;;;;38.67;7.78;;;;;;;7.72;100.00;97723.31;5009042;28;20129;-72
2023/10/21 09:49:37;;;;;;;34.40;6.43;;;;;;;7.72;100.00;97716.38;4998717;28;20518;-72
2023/10/21 09:52:13;;;;;;;32.03;6.65;;;;;;;7.64;100.00;97695.25;5005887;28;20075;-72
2023/10/21 09:55:07;;;;;;;32.78;6.72;;;;;;;7.87;100.00;97708.34;4997245;28;20047;-72
2023/10/21 09:57:36;;;;;;;29.85;8.00;;;;;;;7.85;100.00;97681.59;5008534;28;20056;-72
2023/10/21 10:00:08;;;;;;;38.45;6.70;;;;;;;7.98;100.00;97697.94;5001412;28;20491;-72
2023/10/21 10:02:40;;;;;;;36.75;7.72;;;;;;;8.11;100.00;97677.84;5002326;28;20494;-72
2023/10/21 10:05:07;;;;;;;46.88;9.43;;;;;;;8.16;100.00;97657.47;5007581;28;20112;-72
2023/10/21 10:07:39;;;;;;;36.30;8.00;;;;;;;8.16;100.00;97660.06;4994561;28;20530;-72
2023/10/21 10:10:12;;;;;;;37.60;7.05;;;;;;;8.22;100.00;97665.78;5000136;28;20513;-72
2023/10/21 10:12:52;;;;;;;45.30;8.30;;;;;;;8.22;100.00;97643.13;5014629;28;20137;-72
2023/10/21 10:15:45;;;;;;;32.75;8.18;;;;;;;8.41;100.00;97639.94;4987519;28;20427;-72
2023/10/21 10:18:19;;;;;;;28.15;6.63;;;;;;;8.37;100.00;97609.81;4998489;28;20050;-71
2023/10/21 10:20:51;;;;;;;29.00;5.78;;;;;;;8.46;100.00;97603.09;5005280;28;20542;-72
2023/10/21 10:23:25;;;;;;;32.88;6.82;;;;;;;8.51;100.00;97596.53;5010049;28;20050;-72
2023/10/21 10:25:57;;;;;;;32.90;8.00;;;;;;;8.54;100.00;97569.41;5013175;28;20105;-72
2023/10/21 10:28:27;;;;;;;35.67;7.22;;;;;;;8.65;100.00;97579.81;5013706;28;20050;-72
2023/10/21 10:30:56;;;;;;;33.65;7.72;;;;;;;8.70;100.00;97559.41;5013799;28;20050;-72
2023/10/21 10:33:26;;;;;;;30.10;7.18;;;;;;;8.73;100.00;97547.91;5014038;28;20049;-72
2023/10/21 10:35:55;;;;;;;30.92;8.98;;;;;;;8.80;100.00;97527.34;5009940;28;20042;-72
2023/10/21 10:38:27;;;;;;;45.67;10.82;;;;;;;8.88;100.00;97536.22;4995795;28;20399;-71
2023/10/21 10:41:18;;;;;;;32.92;7.20;;;;;;;8.82;100.00;97502.81;4991107;28;20050;-71
2023/10/21 10:43:49;;;;;;;28.95;7.70;;;;;;;8.90;100.00;97486.50;5000167;28;20065;-72
2023/10/21 10:46:17;;;;;;;36.38;7.60;;;;;;;9.10;100.00;97490.91;5013918;28;20065;-71
2023/10/21 10:48:46;;;;;;;38.67;7.88;;;;;;;9.15;100.00;97476.66;5002245;28;20101;-71
2023/10/21 10:51:17;;;;;;;33.60;8.43;;;;;;;9.27;100.00;97457.34;4994281;28;20085;-72
2023/10/21 10:53:56;;;;;;;26.83;5.97;;;;;;;9.32;100.00;97460.41;4993993;28;20519;-72
2023/10/21 10:56:25;;;;;;;33.85;6.38;;;;;;;9.36;100.00;97448.72;5012012;28;20057;-72
2023/10/21 10:58:52;;;;;;;43.90;8.50;;;;;;;9.49;100.00;97423.22;5013519;28;20542;-72
2023/10/21 11:01:26;;;;;;;44.22;8.63;;;;;;;9.54;100.00;97422.00;4999491;28;20050;-72
2023/10/21 11:04:01;;;;;;;55.10;8.77;;;;;;;9.57;100.00;97419.13;5003315;28;20061;-72
2023/10/21 11:06:35;;;;;;;32.05;7.97;;;;;;;9.77;100.00;97425.22;4993581;28;20492;-72
2023/10/21 11:09:05;;;;;;;;;;;;;;;9.87;100.00;97413.84;5002933;28;20132;-72
2023/10/21 11:11:48;;;;;;;34.25;7.45;;;;;;;9.93;100.00;97407.25;4999299;28;20387;-72
2023/10/21 11:14:34;;;;;;;28.83;7.47;;;;;;;10.06;100.00;97380.88;5012353;28;20424;-72
2023/10/21 11:17:02;;;;;;;38.90;7.15;;;;;;;10.09;100.00;97377.97;4992309;28;20056;-72
2023/10/21 11:19:31;;;;;;;33.75;8.45;;;;;;;10.24;100.00;97360.09;4993321;28;20527;-72
2023/10/21 11:21:57;;;;;;;37.30;10.73;;;;;;;10.30;100.00;97359.53;4997032;28;20061;-72
2023/10/21 11:24:26;;;;;;;31.52;8.25;;;;;;;10.36;100.00;97366.06;5006832;28;20488;-73
2023/10/21 11:26:53;;;;;;;34.63;7.63;;;;;;;10.39;100.00;97350.06;4993523;28;20047;-72
2023/10/21 11:29:22;;;;;;;23.77;6.35;;;;;;;10.67;100.00;97343.13;4993144;28;20150;-72